METAR Data
IDs: Format: Raw Decoded Include TAF

Data at: 0558 UTC 24 Sep 2018

KCQF 240535Z AUTO 00000KT 10SM CLR 23/23 A2997 RMK AO2
KCQF 240515Z AUTO 00000KT 10SM CLR 23/23 A2997 RMK AO2
KCQF 240455Z AUTO 09003KT 10SM CLR 23/23 A2997 RMK AO2
KCQF 240435Z AUTO 07003KT 10SM SCT023 23/23 A2998 RMK AO2
KCQF 240415Z AUTO 06003KT 10SM CLR 23/23 A2998 RMK AO2
KCQF 240355Z AUTO 00000KT 10SM CLR 23/23 A2998 RMK AO2
KCQF 240335Z AUTO 00000KT 10SM CLR 23/23 A2998 RMK AO2
KCQF 240315Z AUTO 00000KT 10SM CLR 23/23 A2998 RMK AO2
KCQF 240255Z AUTO 00000KT 10SM CLR 23/23 A2998 RMK AO2
KCQF 240235Z AUTO 00000KT 10SM CLR 23/23 A2998 RMK AO2
KCQF 240215Z AUTO 00000KT 10SM SCT110 24/24 A2997 RMK AO2
KCQF 240155Z AUTO 14003KT 10SM SCT110 24/24 A2997 RMK AO2
KCQF 240135Z AUTO 14005KT 10SM CLR 25/25 A2996 RMK AO2
KCQF 240115Z AUTO 00000KT 10SM CLR 25/25 A2996 RMK AO2
KCQF 240055Z AUTO 00000KT 10SM SCT070 SCT095 24/24 A2995 RMK AO2 P0002
KCQF 240035Z AUTO 00000KT 10SM -RA SCT026 BKN075 OVC100 25/25 A2995 RMK AO2 P0002
KCQF 240015Z AUTO 14005KT 10SM SCT026 BKN041 OVC075 25/25 A2995 RMK AO2
KCQF 232355Z AUTO 00000KT 10SM RA SCT041 BKN050 BKN080 26/23 A2994 RMK AO2
KCQF 232335Z AUTO 00000KT 10SM CLR 27/24 A2994 RMK AO2
KCQF 232315Z AUTO 16003KT 10SM CLR 28/23 A2993 RMK AO2
KCQF 232255Z AUTO 16006KT 10SM CLR 28/22 A2993 RMK AO2
KCQF 232235Z AUTO 14007KT 10SM SCT027 SCT038 BKN048 28/23 A2993 RMK AO2
KCQF 232215Z AUTO 12008KT 10SM SCT029 SCT037 BKN046 28/23 A2993 RMK AO2
KCQF 232155Z AUTO 15009KT 10SM SCT032 SCT040 SCT047 30/23 A2992 RMK AO2
KCQF 232135Z AUTO 13009KT 10SM SCT032 SCT040 SCT047 29/23 A2993 RMK AO2
KCQF 232115Z AUTO 16008KT 10SM SCT030 29/23 A2993 RMK AO2
KCQF 232055Z AUTO 11006KT 10SM SCT033 SCT041 SCT050 29/23 A2993 RMK AO2
KCQF 232035Z AUTO 16008KT 10SM SCT026 SCT032 SCT050 29/23 A2992 RMK AO2
KCQF 232015Z AUTO 14011KT 10SM SCT026 SCT095 29/23 A2993 RMK AO2
KCQF 231955Z AUTO 18005KT 10SM SCT060 29/24 A2993 RMK AO2
KCQF 231935Z AUTO 16007KT 10SM SCT035 SCT043 BKN060 29/23 A2994 RMK AO2
KCQF 231915Z AUTO 19003KT 10SM SCT035 SCT041 28/22 A2996 RMK AO2
KCQF 231855Z AUTO 14006KT 10SM CLR 29/22 A2996 RMK AO2
KCQF 231835Z AUTO 09006KT 070V140 10SM CLR 29/23 A2997 RMK AO2
KCQF 231815Z AUTO 11006KT 10SM CLR 28/22 A2998 RMK AO2
KCQF 231755Z AUTO 14008KT 100V160 10SM CLR 28/22 A2999 RMK AO2
KCQF 231735Z AUTO 13007KT 10SM CLR 27/22 A3000 RMK AO2
KCQF 231715Z AUTO 12005G08KT 10SM SCT120 27/24 A3001 RMK AO2
KCQF 231655Z AUTO 12004KT 10SM SCT050 SCT100 OVC120 26/23 A3001 RMK AO2 P0001
KCQF 231635Z AUTO 09003KT 10SM OVC090 25/25 A3002 RMK AO2 P0001
KCQF 231615Z AUTO 00000KT 10SM SCT024 SCT042 OVC100 24/24 A3002 RMK AO2 P0001
KCQF 231555Z AUTO 14005KT 4SM -RA BKN024 BKN036 OVC044 23/23 A3002 RMK AO2 P0009
KCQF 231535Z AUTO 16013G16KT 10SM BKN022 BKN027 BKN033 25/24 A3003 RMK AO2
KCQF 231515Z AUTO 10005KT 10SM CLR 28/24 A3002 RMK AO2
KCQF 231455Z AUTO 09007KT 10SM CLR 27/23 A3001 RMK AO2
KCQF 231435Z AUTO 09006KT 10SM CLR 26/23 A3001 RMK AO2
KCQF 231415Z AUTO 07006KT 10SM CLR 26/24 A3001 RMK AO2
KCQF 231355Z AUTO 07005KT 10SM CLR 26/26 A3000 RMK AO2
KCQF 231335Z AUTO 06006KT 10SM CLR 25/25 A3000 RMK AO2
KCQF 231315Z AUTO 06004KT 10SM CLR 25/25 A3000 RMK AO2
KCQF 231255Z AUTO 05004KT 10SM CLR 23/23 A3000 RMK AO2
KCQF 231235Z AUTO 00000KT 10SM CLR 23/23 A2999 RMK AO2
KCQF 231215Z AUTO 00000KT 10SM CLR 22/22 A2998 RMK AO2
KCQF 231155Z AUTO 05003KT 10SM CLR 22/22 A2998 RMK AO2
KCQF 231135Z AUTO 00000KT 10SM CLR 22/22 A2998 RMK AO2
KCQF 231115Z AUTO 00000KT 10SM CLR 22/22 A2997 RMK AO2
KCQF 231055Z AUTO 00000KT 10SM CLR 22/22 A2996 RMK AO2
KCQF 231035Z AUTO 00000KT 10SM CLR 22/22 A2996 RMK AO2
KCQF 231015Z AUTO 00000KT 10SM CLR 22/22 A2996 RMK AO2
KCQF 230955Z AUTO 00000KT 10SM CLR 22/22 A2995 RMK AO2
KCQF 230935Z AUTO 00000KT 10SM CLR 22/22 A2995 RMK AO2
KCQF 230915Z AUTO 00000KT 10SM CLR 22/22 A2995 RMK AO2
KCQF 230850Z AUTO 00000KT 10SM CLR 22/22 A2995 RMK AO2
KCQF 230835Z AUTO 00000KT 10SM CLR 22/22 A2996 RMK AO2
KCQF 230815Z AUTO 00000KT 10SM CLR 22/22 A2996 RMK AO2
KCQF 230755Z AUTO 00000KT 10SM CLR 22/22 A2996 RMK AO2
KCQF 230735Z AUTO 00000KT 7SM CLR 22/22 A2996 RMK AO2
KCQF 230715Z AUTO 00000KT 7SM CLR 22/22 A2996 RMK AO2
KCQF 230655Z AUTO 00000KT 7SM CLR 22/22 A2996 RMK AO2
KCQF 230635Z AUTO 00000KT 10SM CLR 22/22 A2997 RMK AO2
KCQF 230615Z AUTO 00000KT 7SM CLR 22/22 A2997 RMK AO2
KCQF 230555Z AUTO 00000KT 10SM CLR 22/22 A2998 RMK AO2
KCQF 230535Z AUTO 00000KT 10SM CLR 22/22 A2998 RMK AO2
KCQF 230515Z AUTO 00000KT 10SM CLR 22/22 A2999 RMK AO2
KCQF 230455Z AUTO 00000KT 10SM CLR 22/22 A2999 RMK AO2
KCQF 230435Z AUTO 00000KT 10SM CLR 22/22 A3000 RMK AO2
KCQF 230415Z AUTO 00000KT 10SM CLR 22/22 A3000 RMK AO2
KCQF 230355Z AUTO 00000KT 10SM CLR 23/23 A3001 RMK AO2
KCQF 230335Z AUTO 00000KT 10SM CLR 22/22 A3002 RMK AO2
KCQF 230315Z AUTO 00000KT 10SM CLR 23/23 A3002 RMK AO2
KCQF 230255Z AUTO 00000KT 10SM SCT028 23/23 A3002 RMK AO2
KCQF 230235Z AUTO 00000KT 10SM SCT028 SCT037 23/23 A3002 RMK AO2
KCQF 230215Z AUTO 00000KT 10SM CLR 23/23 A3002 RMK AO2
KCQF 230155Z AUTO 00000KT 10SM CLR 23/23 A3002 RMK AO2
KCQF 230135Z AUTO 00000KT 10SM CLR 23/23 A3001 RMK AO2
KCQF 230115Z AUTO 00000KT 10SM CLR 23/23 A3001 RMK AO2
KCQF 230055Z AUTO 00000KT 10SM CLR 23/23 A3000 RMK AO2
KCQF 230035Z AUTO 00000KT 10SM CLR 24/24 A2999 RMK AO2
KCQF 230015Z AUTO 00000KT 10SM CLR 24/24 A2999 RMK AO2
KCQF 222355Z AUTO 00000KT 10SM CLR 25/25 A2998 RMK AO2
KCQF 222335Z AUTO 00000KT 10SM CLR 25/25 A2998 RMK AO2
KCQF 222315Z AUTO 00000KT 10SM CLR 26/25 A2997 RMK AO2
KCQF 222255Z AUTO 17003KT 10SM CLR 27/25 A2997 RMK AO2
KCQF 222235Z AUTO 17005KT 10SM CLR 28/24 A2997 RMK AO2
KCQF 222215Z AUTO 18006KT 10SM SCT030 SCT038 SCT044 29/24 A2997 RMK AO2
KCQF 222155Z AUTO 17009KT 10SM SCT033 SCT044 29/24 A2996 RMK AO2
KCQF 222135Z AUTO 17009KT 10SM SCT033 28/24 A2996 RMK AO2
KCQF 222115Z AUTO 17006KT 10SM CLR 28/23 A2996 RMK AO2
KCQF 222055Z AUTO 17006KT 10SM CLR 28/25 A2996 RMK AO2
KCQF 222035Z AUTO 17007KT 10SM SCT037 SCT045 28/25 A2996 RMK AO2
KCQF 222015Z AUTO 00000KT 10SM CLR 27/26 A2997 RMK AO2
KCQF 221955Z AUTO 00000KT 10SM SCT045 SCT050 SCT120 25/25 A2998 RMK AO2 P0025
KCQF 221935Z AUTO 29003KT 7SM -RA SCT027 BKN034 BKN047 24/24 A2998 RMK AO2 P0025
KCQF 221915Z AUTO 17009G21KT 4SM +RA SCT029 BKN045 OVC095 28/24 A3000 RMK AO2 P0009
KCQF 221855Z AUTO 17008KT 10SM SCT038 SCT049 BKN055 30/24 A3000 RMK AO2
KCQF 221835Z AUTO 18007KT 10SM SCT033 SCT040 SCT048 30/23 A3000 RMK AO2
KCQF 221815Z AUTO 14005KT 10SM SCT031 SCT037 BKN050 29/24 A3002 RMK AO2